Hlavní strana
METAR-TAF:

METAR-TAF

Letiště :

West Memphis, Arkansas, Spojené státy americké

zeměpisná šířka: 35-08N, zeměpisná délka: 090-14W, výška: 65 m

Aktuální stav počasí

Zpráva byla vytvořena před 11 minutami, v 10:53 UTC
Jižní vítr 8 kt
Teplota 4°C
Vlhkost vzduchu 100%
Tlak 1012 hPa
Viditelnost: 9.7 km
Skoro jasno ve výšce 400 ft
Oblačno až skoro zataženo ve výšce 3900 ft
Zataženo ve výšce 7000 ft
kouřmo

METAR: KAWM 241053Z AUTO 18008KT 6SM BR FEW004 BKN039 OVC070 04/04 A2987 RMK AO2 SLP116 T00440039

Čas: 05:04 (11:04 UTC)


TAF: chybějící

Stav a předpovědi počasí z více než 4 000 letišť (zprávy METAR a TAF).

Červené a žluté tečky na mapě představují dostupné meteorologické stanice.

Když kurzor umístíte na tečku, zobrazí se název stanice.

Pak kliknutím zobrazíte stav a předpověď počasí.

Chcete-li změnit mapu, kliknutím na zelené tlačítko se znaménkem +mapu přiblížíte, kliknutím na zelené tlačítko se znaménkem – mapu oddálíte a kliknutím na zelené šipky přejdete na sousední mapy.


METAR-TAF: